Time;durP1;ratioP1;P1;durP2;ratioP2;P2;SDS_P1;SDS_P2;PMS_P1;PMS_P2;Temp;Humidity;BMP_temperature;BMP_pressure;BME280_temperature;BME280_humidity;BME280_pressure;Samples;Min_cycle;Max_cycle;Signal;HPM_P1;HPM_P2
2022/02/21 00:01:42;;;;;;;59.90;35.85;;;;;;;6.35;59.99;100232.81;5049653;28;20075;-23
2022/02/21 00:04:07;;;;;;;68.93;38.67;;;;;;;6.74;59.06;100257.28;5067688;28;20085;-22
2022/02/21 00:06:32;;;;;;;60.55;35.30;;;;;;;6.67;58.86;100248.47;5049015;28;20028;-23
2022/02/21 00:08:59;;;;;;;62.60;35.00;;;;;;;6.39;60.08;100259.78;5067485;28;20044;-22
2022/02/21 00:11:24;;;;;;;54.95;32.70;;;;;;;6.83;58.71;100232.31;5067284;28;20055;-22
2022/02/21 00:13:50;;;;;;;56.60;32.13;;;;;;;6.82;58.43;100230.66;5033160;28;20020;-22
2022/02/21 00:16:15;;;;;;;55.97;31.77;;;;;;;6.67;58.82;100217.47;5049544;28;20561;-22
2022/02/21 00:18:40;;;;;;;58.00;33.40;;;;;;;6.32;60.87;100222.63;5067068;28;20059;-22
2022/02/21 00:21:06;;;;;;;57.72;33.00;;;;;;;6.15;61.19;100200.00;5067388;28;20094;-22
2022/02/21 00:23:31;;;;;;;50.25;30.85;;;;;;;6.22;61.50;100219.47;5067393;28;20029;-22
2022/02/21 00:25:57;;;;;;;53.08;30.15;;;;;;;6.56;60.56;100207.38;5049322;28;20041;-22
2022/02/21 00:28:22;;;;;;;52.30;30.42;;;;;;;6.33;61.56;100213.66;5067120;28;20412;-23
2022/02/21 00:30:48;;;;;;;50.08;29.52;;;;;;;6.44;61.05;100205.22;5067060;28;20032;-23
2022/02/21 00:33:13;;;;;;;50.92;28.65;;;;;;;6.77;60.13;100211.88;5066951;28;20035;-23
2022/02/21 00:35:39;;;;;;;53.92;29.55;;;;;;;6.25;61.05;100208.47;5048753;28;20037;-22
2022/02/21 00:38:04;;;;;;;52.25;28.30;;;;;;;6.09;63.55;100216.63;5066842;28;20506;-23
2022/02/21 00:40:29;;;;;;;53.13;29.58;;;;;;;6.60;60.87;100213.97;5066812;28;20028;-24
2022/02/21 00:42:55;;;;;;;54.47;31.02;;;;;;;6.61;61.26;100219.03;5049051;28;20089;-23
2022/02/21 00:45:20;;;;;;;47.17;28.80;;;;;;;6.48;60.90;100202.19;5067159;28;20036;-22
2022/02/21 00:47:46;;;;;;;58.63;31.08;;;;;;;5.97;62.82;100193.31;5048646;28;20055;-22
2022/02/21 00:50:11;;;;;;;56.42;29.55;;;;;;;5.62;64.43;100206.28;5048824;28;20032;-22
2022/02/21 00:52:37;;;;;;;47.83;28.67;;;;;;;5.66;65.28;100200.59;5066332;28;20149;-22
2022/02/21 00:55:03;;;;;;;50.33;28.60;;;;;;;5.49;65.94;100200.78;5048474;28;20029;-22
2022/02/21 00:57:28;;;;;;;48.90;28.58;;;;;;;5.39;66.57;100202.88;5032221;28;20131;-22
2022/02/21 00:59:54;;;;;;;53.83;29.85;;;;;;;5.18;66.35;100193.03;5032136;28;20036;-23
2022/02/21 01:02:19;;;;;;;49.47;28.42;;;;;;;5.27;66.94;100191.94;5048285;28;20558;-23
2022/02/21 01:04:45;;;;;;;48.67;27.85;;;;;;;6.10;64.79;100197.94;5048214;28;20028;-22
2022/02/21 01:07:10;;;;;;;49.83;29.23;;;;;;;6.23;62.46;100152.22;5066195;28;20036;-22
2022/02/21 01:09:36;;;;;;;51.20;28.92;;;;;;;6.54;62.43;100180.25;5048761;28;20032;-22
2022/02/21 01:12:01;;;;;;;45.25;30.05;;;;;;;6.78;61.11;100174.56;5066036;28;20409;-22
2022/02/21 01:14:27;;;;;;;42.35;26.52;;;;;;;6.82;60.54;100170.53;5066470;28;20028;-22
2022/02/21 01:16:52;;;;;;;43.75;26.95;;;;;;;6.59;61.38;100175.19;5066632;28;20048;-22
2022/02/21 01:19:18;;;;;;;48.25;26.17;;;;;;;6.56;61.52;100164.97;5031657;28;20032;-23
2022/02/21 01:21:43;;;;;;;43.42;26.40;;;;;;;6.38;61.91;100160.94;5048538;28;20090;-23
2022/02/21 01:24:08;;;;;;;43.70;25.70;;;;;;;6.58;60.47;100136.47;5066131;28;20377;-22
2022/02/21 01:26:34;;;;;;;39.35;24.85;;;;;;;6.88;60.27;100163.63;5065976;28;20082;-22
2022/02/21 01:28:59;;;;;;;38.95;25.52;;;;;;;6.16;62.52;100149.53;5047979;28;20028;-22
2022/02/21 01:31:25;;;;;;;43.10;24.20;;;;;;;6.08;62.95;100138.22;5048260;28;20040;-23
2022/02/21 01:33:50;;;;;;;46.22;25.10;;;;;;;6.48;61.31;100149.19;5065926;28;20024;-23
2022/02/21 01:36:16;;;;;;;44.05;26.10;;;;;;;5.95;63.50;100152.16;5047669;28;20109;-22
2022/02/21 01:38:41;;;;;;;42.65;27.20;;;;;;;6.50;62.51;100155.13;5031201;28;20036;-23
2022/02/21 01:41:07;;;;;;;43.38;25.90;;;;;;;6.08;63.84;100151.47;5047881;28;20081;-22
2022/02/21 01:43:33;;;;;;;44.40;26.25;;;;;;;5.66;64.94;100142.41;5066290;28;20029;-23
2022/02/21 01:45:59;;;;;;;43.47;25.95;;;;;;;6.30;63.02;100142.53;5031578;28;20528;-23
2022/02/21 01:48:24;;;;;;;46.70;26.63;;;;;;;6.43;62.02;100140.00;5047896;28;20036;-23
2022/02/21 01:50:50;;;;;;;39.80;25.42;;;;;;;6.04;63.45;100141.25;5047867;28;20033;-23
2022/02/21 01:53:15;;;;;;;43.17;25.20;;;;;;;6.13;64.33;100119.94;5047943;28;20051;-22
2022/02/21 01:55:42;;;;;;;43.15;25.92;;;;;;;6.51;62.37;100119.69;5047555;28;20063;-22
2022/02/21 01:58:08;;;;;;;59.58;32.42;;;;;;;6.87;60.86;100140.78;5031697;28;20078;-22
2022/02/21 02:00:33;;;;;;;52.85;29.42;;;;;;;6.94;61.15;100124.91;5065843;28;20028;-22
2022/02/21 02:02:59;;;;;;;42.45;26.20;;;;;;;6.92;60.93;100132.25;5047774;28;20025;-22
2022/02/21 02:05:25;;;;;;;42.08;25.05;;;;;;;6.86;61.20;100125.06;5047728;28;20062;-22
2022/02/21 02:07:54;;;;;;;45.00;26.27;;;;;;;6.99;61.44;100139.25;5047775;28;20047;-23
2022/02/21 02:10:20;;;;;;;54.13;30.55;;;;;;;6.77;62.70;100130.50;5065864;28;20067;-23
2022/02/21 02:12:45;;;;;;;47.75;27.27;;;;;;;6.95;62.71;100126.56;5047244;28;20057;-22
2022/02/21 02:15:16;;;;;;;43.60;24.90;;;;;;;6.88;62.94;100133.63;5047905;28;20020;-23
2022/02/21 02:17:42;;;;;;;37.60;22.63;;;;;;;7.02;62.50;100122.94;5031201;28;20115;-22
2022/02/21 02:20:08;;;;;;;37.83;23.02;;;;;;;7.06;62.93;100127.84;5047523;28;20131;-22
2022/02/21 02:22:33;;;;;;;36.00;21.50;;;;;;;6.81;64.08;100107.91;5047277;28;20036;-23
2022/02/21 02:24:59;;;;;;;79.13;34.85;;;;;;;6.76;64.49;100117.44;5047830;28;20021;-22
2022/02/21 02:27:25;;;;;;;74.32;33.80;;;;;;;6.77;64.85;100114.59;5031265;28;20043;-23
2022/02/21 02:29:53;;;;;;;49.08;25.33;;;;;;;6.88;65.11;100118.53;5065656;28;20055;-22
2022/02/21 02:32:20;;;;;;;39.88;21.38;;;;;;;6.90;63.97;100097.16;5047371;28;20068;-22
2022/02/21 02:34:46;;;;;;;30.10;18.38;;;;;;;6.98;64.24;100112.91;5031262;28;21410;-22
2022/02/21 02:37:11;;;;;;;27.30;16.83;;;;;;;7.20;63.60;100119.78;5065720;28;20133;-22
2022/02/21 02:39:37;;;;;;;32.55;17.02;;;;;;;6.99;64.34;100127.81;5065776;28;20135;-22
2022/02/21 02:42:03;;;;;;;25.13;16.73;;;;;;;6.89;65.49;100128.16;5030865;28;20063;-22
2022/02/21 02:44:28;;;;;;;30.17;17.55;;;;;;;6.29;67.61;100132.94;5047326;28;20021;-22
2022/02/21 02:46:53;;;;;;;31.35;18.30;;;;;;;6.69;66.47;100128.00;5046970;28;20051;-22
2022/02/21 02:49:19;;;;;;;34.63;20.15;;;;;;;6.52;67.08;100123.97;5049185;28;20409;-23
2022/02/21 02:51:44;;;;;;;32.20;18.73;;;;;;;6.39;67.69;100106.94;5050854;28;20037;-22
2022/02/21 02:54:11;;;;;;;32.88;18.45;;;;;;;7.07;65.71;100114.41;5050722;28;20129;-23
2022/02/21 02:56:39;;;;;;;29.92;18.30;;;;;;;6.82;65.91;100122.81;5047310;28;20040;-23
2022/02/21 02:59:04;;;;;;;30.50;19.55;;;;;;;6.83;66.43;100119.13;5048895;28;20024;-22
2022/02/21 03:01:29;;;;;;;46.13;25.65;;;;;;;6.41;67.47;100089.03;5048614;28;20461;-22
2022/02/21 03:03:55;;;;;;;39.33;22.48;;;;;;;6.57;67.17;100130.34;5030846;28;20048;-22
2022/02/21 03:06:21;;;;;;;53.25;28.65;;;;;;;6.58;66.67;100110.78;5048754;28;20046;-22
2022/02/21 03:08:46;;;;;;;41.30;24.80;;;;;;;6.76;66.27;100123.59;5014188;28;20029;-22
2022/02/21 03:11:12;;;;;;;38.67;24.35;;;;;;;6.51;66.62;100109.09;5030677;28;20060;-23
2022/02/21 03:13:37;;;;;;;41.03;23.50;;;;;;;6.21;67.68;100098.63;5048816;28;20039;-22
2022/02/21 03:16:03;;;;;;;39.20;23.85;;;;;;;6.37;66.80;100130.16;5030515;28;20033;-23
2022/02/21 03:18:28;;;;;;;38.90;24.95;;;;;;;6.55;66.14;100110.34;5048744;28;20040;-23
2022/02/21 03:20:54;;;;;;;44.47;26.50;;;;;;;6.71;65.28;100115.38;5048335;28;20037;-23
2022/02/21 03:23:19;;;;;;;42.25;27.45;;;;;;;6.63;65.34;100123.47;5048459;28;20029;-22
2022/02/21 03:25:45;;;;;;;46.53;26.23;;;;;;;6.61;65.67;100120.19;5030388;28;20481;-23
2022/02/21 03:28:10;;;;;;;41.55;25.48;;;;;;;6.79;65.13;100123.19;5048848;28;20496;-22
2022/02/21 03:30:36;;;;;;;41.60;25.83;;;;;;;6.07;67.70;100115.41;5030030;28;20040;-22
2022/02/21 03:33:02;;;;;;;41.92;25.33;;;;;;;5.93;67.92;100085.31;5030543;28;20052;-22
2022/02/21 03:35:28;;;;;;;38.97;24.73;;;;;;;6.28;67.47;100104.81;5013703;28;20132;-23
2022/02/21 03:37:54;;;;;;;62.03;32.85;;;;;;;6.28;67.00;100102.19;5030362;28;20025;-23
2022/02/21 03:40:19;;;;;;;55.53;31.13;;;;;;;6.26;67.84;100113.97;5030152;28;20389;-22
2022/02/21 03:42:45;;;;;;;57.75;34.65;;;;;;;6.67;65.93;100113.31;5048207;28;20025;-22
2022/02/21 03:45:10;;;;;;;48.05;27.45;;;;;;;6.44;67.09;100099.25;5047866;28;20036;-22
2022/02/21 03:47:36;;;;;;;43.13;27.27;;;;;;;6.47;67.36;100105.19;5013534;28;20032;-22
2022/02/21 03:50:01;;;;;;;43.10;24.52;;;;;;;6.30;67.12;100097.50;5030174;28;20040;-22
2022/02/21 03:52:27;;;;;;;44.67;26.25;;;;;;;6.37;67.91;100098.38;5029909;28;20544;-23
2022/02/21 03:54:53;;;;;;;38.97;23.63;;;;;;;6.81;66.07;100094.66;5015911;28;20029;-22
2022/02/21 03:57:18;;;;;;;35.47;23.92;;;;;;;6.83;67.27;100086.50;5029909;28;20425;-22
2022/02/21 03:59:44;;;;;;;38.53;24.23;;;;;;;6.47;67.27;100071.56;5047353;28;20099;-23
2022/02/21 04:02:09;;;;;;;35.13;22.23;;;;;;;6.34;67.80;100080.22;5047515;28;20485;-22
2022/02/21 04:04:35;;;;;;;40.97;26.38;;;;;;;5.87;70.34;100080.78;5047834;28;20126;-23
2022/02/21 04:07:00;;;;;;;38.10;24.42;;;;;;;5.67;71.00;100048.78;5029832;28;20030;-22
2022/02/21 04:09:26;;;;;;;39.05;24.08;;;;;;;6.13;69.54;100065.19;5029671;28;20602;-23
2022/02/21 04:11:51;;;;;;;41.95;24.55;;;;;;;6.01;69.78;100066.69;5045900;28;20060;-22
2022/02/21 04:14:16;;;;;;;36.92;22.33;;;;;;;6.54;68.65;100067.16;5047067;28;20043;-23
2022/02/21 04:16:42;;;;;;;37.97;24.00;;;;;;;6.51;68.04;100072.81;5047327;28;20033;-22
2022/02/21 04:19:07;;;;;;;39.42;23.27;;;;;;;6.66;68.61;100075.41;5012923;28;20098;-22
2022/02/21 04:21:36;;;;;;;34.60;22.52;;;;;;;6.64;68.30;100061.53;5047330;28;20381;-22
2022/02/21 04:24:01;;;;;;;33.40;20.35;;;;;;;6.75;66.87;100078.72;5047242;28;20540;-23
2022/02/21 04:26:27;;;;;;;33.70;22.33;;;;;;;6.16;68.82;100063.97;5046923;28;20039;-23
2022/02/21 04:28:52;;;;;;;37.10;24.10;;;;;;;6.51;67.70;100058.75;5046894;28;20036;-23
2022/02/21 04:31:18;;;;;;;34.95;24.42;;;;;;;6.67;66.73;100036.47;5029179;28;20518;-23
2022/02/21 04:33:44;;;;;;;49.72;33.05;;;;;;;6.62;66.39;100047.66;5047332;28;20043;-22
2022/02/21 04:36:11;;;;;;;42.88;25.55;;;;;;;6.47;67.53;100052.22;5029147;28;20036;-22
2022/02/21 04:38:36;;;;;;;39.38;23.67;;;;;;;6.31;67.54;100048.81;5028999;28;20029;-22
2022/02/21 04:41:02;;;;;;;45.80;30.10;;;;;;;6.61;66.92;100053.94;5045506;28;20094;-22
2022/02/21 04:43:27;;;;;;;39.88;28.23;;;;;;;5.93;68.61;100041.13;5046911;28;20095;-22
2022/02/21 04:45:55;;;;;;;38.17;25.00;;;;;;;5.92;69.73;100051.91;5012160;28;20036;-22
2022/02/21 04:48:23;;;;;;;40.97;26.40;;;;;;;6.44;68.03;100048.94;5046959;28;20377;-23
2022/02/21 04:50:49;;;;;;;43.95;27.10;;;;;;;6.09;68.74;100041.91;5029000;28;20037;-21
2022/02/21 04:53:14;;;;;;;43.45;25.23;;;;;;;5.93;70.02;100043.78;5045564;28;20045;-21
2022/02/21 04:55:40;;;;;;;39.33;25.27;;;;;;;6.24;69.21;100051.41;5058910;28;20481;-22
2022/02/21 04:58:05;;;;;;;43.03;28.30;;;;;;;5.96;70.17;100038.13;5066431;28;20086;-23
2022/02/21 05:00:31;;;;;;;51.10;32.40;;;;;;;6.22;68.67;100037.53;5066292;28;20032;-22
2022/02/21 05:02:56;;;;;;;50.92;33.35;;;;;;;6.12;69.72;100037.06;5048862;28;20500;-23
2022/02/21 05:05:22;;;;;;;41.80;30.67;;;;;;;6.34;68.79;100043.16;5066629;28;20032;-22
2022/02/21 05:07:47;;;;;;;50.83;32.42;;;;;;;5.99;70.57;100048.34;5066643;28;20031;-23
2022/02/21 05:10:13;;;;;;;52.65;33.40;;;;;;;6.18;69.64;100046.88;5066478;28;20044;-22
2022/02/21 05:12:38;;;;;;;42.20;26.25;;;;;;;6.03;69.00;100033.72;5047211;28;20606;-22
2022/02/21 05:15:05;;;;;;;40.08;23.35;;;;;;;5.94;69.87;100049.88;5048202;28;20033;-22
2022/02/21 05:17:30;;;;;;;34.70;23.17;;;;;;;5.94;70.47;100034.81;5032021;28;20036;-22
2022/02/21 05:19:56;;;;;;;35.17;22.25;;;;;;;6.33;68.13;100043.34;5066484;28;20373;-22
2022/02/21 05:22:21;;;;;;;34.78;21.88;;;;;;;6.75;67.15;100047.72;5066555;28;20036;-23
2022/02/21 05:24:47;;;;;;;37.22;23.73;;;;;;;6.66;67.22;100051.53;5048026;28;20017;-22
2022/02/21 05:27:13;;;;;;;35.28;22.17;;;;;;;6.60;67.47;100044.38;5048432;28;20554;-23
2022/02/21 05:29:38;;;;;;;35.22;21.85;;;;;;;6.78;67.26;100057.94;5048076;28;20040;-22
2022/02/21 05:32:04;;;;;;;32.92;21.45;;;;;;;6.89;66.92;100053.13;5066600;28;20786;-23
2022/02/21 05:34:30;;;;;;;31.73;20.60;;;;;;;6.60;67.90;100054.97;5047764;28;20036;-23
2022/02/21 05:36:55;;;;;;;33.03;21.13;;;;;;;6.47;67.86;100052.22;5066354;28;20036;-22
2022/02/21 05:39:21;;;;;;;45.05;26.73;;;;;;;6.07;70.18;100054.50;5066504;28;20047;-22
2022/02/21 05:41:46;;;;;;;35.42;23.77;;;;;;;5.62;71.63;100055.47;5066297;28;20040;-23
2022/02/21 05:44:12;;;;;;;34.00;22.90;;;;;;;5.89;72.47;100068.16;5066177;28;20047;-22
2022/02/21 05:46:38;;;;;;;36.85;21.50;;;;;;;5.67;71.42;100030.28;5065931;28;20047;-22
2022/02/21 05:49:04;;;;;;;35.78;22.75;;;;;;;5.62;71.97;100068.69;5066088;28;20039;-23
2022/02/21 05:51:32;;;;;;;35.67;23.02;;;;;;;5.68;73.62;100066.28;5066141;28;20064;-22
2022/02/21 05:53:58;;;;;;;35.83;22.92;;;;;;;5.94;71.49;100071.88;5065950;28;20020;-22
2022/02/21 05:56:23;;;;;;;33.15;22.50;;;;;;;5.69;73.41;100073.25;5047431;28;20036;-22
2022/02/21 05:58:49;;;;;;;34.08;23.83;;;;;;;5.62;74.15;100065.25;5066041;28;20756;-22
2022/02/21 06:01:14;;;;;;;38.17;23.55;;;;;;;5.61;74.46;100063.59;5048021;28;20032;-23
2022/02/21 06:03:40;;;;;;;40.92;26.33;;;;;;;6.28;71.42;100070.41;5066054;28;20028;-22
2022/02/21 06:06:05;;;;;;;80.57;47.70;;;;;;;6.07;71.15;100071.22;5066028;28;20484;-22
2022/02/21 06:08:31;;;;;;;71.47;41.72;;;;;;;5.96;72.25;100069.88;5065598;28;20025;-22
2022/02/21 06:10:57;;;;;;;44.45;27.75;;;;;;;5.98;71.86;100051.97;5065687;28;20044;-22
2022/02/21 06:13:22;;;;;;;48.08;29.05;;;;;;;6.18;71.92;100062.75;5065514;28;20116;-22
2022/02/21 06:15:48;;;;;;;45.03;28.00;;;;;;;6.82;68.87;100058.34;5047885;28;20029;-23
2022/02/21 06:18:13;;;;;;;78.20;44.13;;;;;;;7.35;67.00;100058.63;5065798;28;20086;-23
2022/02/21 06:20:39;;;;;;;94.38;49.13;;;;;;;6.72;68.63;100048.13;5065536;28;20032;-23
2022/02/21 06:23:04;;;;;;;146.32;68.72;;;;;;;6.81;68.61;100039.00;5067055;28;20031;-23
2022/02/21 06:25:30;;;;;;;128.35;61.45;;;;;;;7.02;67.72;100053.19;5051347;28;20033;-23
2022/02/21 06:27:55;;;;;;;82.00;46.88;;;;;;;6.92;68.44;100047.41;5069392;28;20397;-22
2022/02/21 06:30:20;;;;;;;84.80;53.13;;;;;;;6.79;68.86;100043.66;5069332;28;20040;-22
2022/02/21 06:32:46;;;;;;;84.60;53.65;;;;;;;6.70;69.58;100039.53;5069356;28;20072;-22
2022/02/21 06:35:11;;;;;;;69.93;44.33;;;;;;;6.61;69.93;100032.75;5069329;28;20028;-22
2022/02/21 06:37:45;;;;;;;53.58;36.75;;;;;;;6.49;69.80;100021.03;5051525;28;20467;-22
2022/02/21 06:40:11;;;;;;;69.63;45.30;;;;;;;7.04;69.11;100032.59;5069032;28;20125;-23
2022/02/21 06:42:37;;;;;;;63.78;37.92;;;;;;;7.12;68.71;100021.81;5069234;28;20098;-22
2022/02/21 06:45:03;;;;;;;51.42;32.83;;;;;;;7.54;66.21;100016.44;5051237;28;20032;-22
2022/02/21 06:47:28;;;;;;;57.95;38.58;;;;;;;8.27;64.60;100029.00;5051300;28;20060;-22
2022/02/21 06:49:54;;;;;;;69.82;43.15;;;;;;;8.28;65.21;100030.66;5069153;28;20033;-23
2022/02/21 06:52:19;;;;;;;62.83;41.35;;;;;;;8.56;64.85;100038.44;5068911;28;20036;-23
2022/02/21 06:54:45;;;;;;;49.30;31.30;;;;;;;8.64;64.77;100040.88;5068661;28;20035;-23
2022/02/21 06:57:11;;;;;;;55.00;34.90;;;;;;;8.96;63.44;100044.50;5065852;28;20555;-23
2022/02/21 06:59:36;;;;;;;58.97;35.65;;;;;;;8.93;63.46;100057.38;5069032;28;20032;-22
2022/02/21 07:02:02;;;;;;;56.30;36.58;;;;;;;9.00;63.17;100048.38;5068959;28;20033;-23
2022/02/21 07:04:28;;;;;;;62.20;42.08;;;;;;;9.11;63.36;100052.22;5050820;28;20097;-23
2022/02/21 07:06:53;;;;;;;60.00;39.08;;;;;;;8.83;63.18;100029.41;5069026;28;20135;-23
2022/02/21 07:09:19;;;;;;;74.90;47.58;;;;;;;8.97;61.93;100024.03;5050609;28;20082;-22
2022/02/21 07:11:44;;;;;;;63.53;40.13;;;;;;;9.24;62.24;100038.88;5068397;28;20064;-23
2022/02/21 07:14:10;;;;;;;66.85;40.00;;;;;;;9.54;61.36;100030.38;5068793;28;20086;-22
2022/02/21 07:16:35;;;;;;;60.22;38.50;;;;;;;9.68;60.87;100030.28;5068586;28;20408;-22
2022/02/21 07:19:01;;;;;;;56.55;35.95;;;;;;;9.84;60.51;100029.78;5068558;28;20033;-23
2022/02/21 07:21:26;;;;;;;39.15;25.73;;;;;;;9.62;60.71;100022.13;5050630;28;20044;-22
2022/02/21 07:23:52;;;;;;;39.33;25.40;;;;;;;9.73;60.29;100019.81;5068540;28;20032;-24
2022/02/21 07:26:18;;;;;;;35.85;23.00;;;;;;;9.56;59.94;100023.00;5068568;28;20111;-22
2022/02/21 07:28:44;;;;;;;45.33;28.38;;;;;;;9.57;61.56;100011.28;5050186;28;20032;-22
2022/02/21 07:31:10;;;;;;;38.65;27.60;;;;;;;9.76;61.37;100008.72;5068217;28;20033;-22
2022/02/21 07:33:35;;;;;;;34.55;24.10;;;;;;;9.98;59.68;100010.00;5050005;28;20020;-22
2022/02/21 07:36:01;;;;;;;32.72;20.58;;;;;;;10.19;59.10;100013.31;5049341;28;20029;-22
2022/02/21 07:38:27;;;;;;;25.52;16.05;;;;;;;9.71;59.95;100008.56;5049944;28;20051;-22
2022/02/21 07:40:52;;;;;;;25.10;14.80;;;;;;;9.34;61.29;100005.69;5067751;28;20044;-22
2022/02/21 07:43:18;;;;;;;32.83;20.77;;;;;;;9.57;61.03;100008.63;5068356;28;20070;-22
2022/02/21 07:45:43;;;;;;;26.05;15.15;;;;;;;9.51;62.68;100004.16;5068211;28;20036;-22
2022/02/21 07:48:09;;;;;;;49.15;29.05;;;;;;;9.59;60.14;99995.91;5049971;28;20037;-23
2022/02/21 07:50:35;;;;;;;26.98;17.35;;;;;;;9.96;60.72;99996.09;5068002;28;20037;-22
2022/02/21 07:53:02;;;;;;;24.33;12.98;;;;;;;9.79;60.48;99997.66;5068005;28;20032;-22
2022/02/21 07:55:28;;;;;;;19.75;12.68;;;;;;;9.79;61.41;100000.31;5068045;28;20080;-23
2022/02/21 07:57:53;;;;;;;77.07;53.10;;;;;;;9.17;61.65;99987.53;5068030;28;20139;-22
2022/02/21 08:00:20;;;;;;;22.52;13.57;;;;;;;8.98;64.04;99997.22;5050091;28;20052;-22
2022/02/21 08:02:45;;;;;;;19.63;13.93;;;;;;;9.56;63.19;99980.38;5067561;28;20162;-22
2022/02/21 08:05:11;;;;;;;19.77;12.65;;;;;;;10.17;61.71;99986.88;5050410;28;20380;-22
2022/02/21 08:07:40;;;;;;;21.70;13.82;;;;;;;10.24;60.50;99965.53;5050106;28;20060;-22
2022/02/21 08:10:06;;;;;;;22.08;14.80;;;;;;;10.19;60.18;99968.03;5050042;28;20090;-22
2022/02/21 08:12:32;;;;;;;27.13;14.77;;;;;;;10.34;60.92;99965.88;5049285;28;20476;-22
2022/02/21 08:14:58;;;;;;;22.25;14.23;;;;;;;10.81;58.69;99960.88;5067539;28;20043;-22
2022/02/21 08:17:25;;;;;;;24.10;15.68;;;;;;;10.59;59.97;99954.34;5033146;28;20620;-22
2022/02/21 08:19:50;;;;;;;38.28;22.35;;;;;;;10.71;59.98;99939.25;5067431;28;20025;-23
2022/02/21 08:22:16;;;;;;;20.60;13.07;;;;;;;11.24;58.36;99954.59;5067380;28;20032;-22
2022/02/21 08:24:41;;;;;;;27.42;20.25;;;;;;;10.73;59.25;99939.84;5067267;28;20036;-21
2022/02/21 08:27:07;;;;;;;27.58;16.13;;;;;;;10.72;59.90;99950.72;5067247;28;20036;-22
2022/02/21 08:29:32;;;;;;;29.45;17.85;;;;;;;10.61;60.38;99931.75;5067641;28;20037;-22
2022/02/21 08:31:59;;;;;;;20.67;13.88;;;;;;;10.86;60.64;99942.34;5067269;28;20040;-22
2022/02/21 08:34:24;;;;;;;23.48;14.18;;;;;;;11.15;58.87;99929.25;5067279;28;20028;-22
2022/02/21 08:36:50;;;;;;;22.08;13.93;;;;;;;11.53;57.86;99936.13;5066829;28;20028;-22
2022/02/21 08:39:15;;;;;;;24.33;14.27;;;;;;;11.44;57.51;99924.13;5067168;28;20499;-22
2022/02/21 08:41:41;;;;;;;23.38;13.20;;;;;;;10.85;59.77;99922.03;5067064;28;20032;-22
2022/02/21 08:44:07;;;;;;;18.58;12.40;;;;;;;11.00;60.08;99926.16;5049417;28;20052;-22
2022/02/21 08:46:32;;;;;;;17.17;11.75;;;;;;;11.20;60.20;99918.72;5048752;28;20035;-21
2022/02/21 08:49:02;;;;;;;18.40;12.75;;;;;;;11.29;59.36;99918.41;5054212;28;20445;-22
2022/02/21 08:51:27;;;;;;;18.85;11.68;;;;;;;11.06;59.65;99888.72;5046746;28;20035;-22
2022/02/21 08:53:53;;;;;;;18.52;12.10;;;;;;;11.04;60.04;99895.31;5028939;28;20025;-22
2022/02/21 08:56:18;;;;;;;54.25;33.10;;;;;;;11.01;59.31;99904.59;5012640;28;20788;-22
2022/02/21 08:58:44;;;;;;;18.35;12.63;;;;;;;11.30;59.75;99898.66;5028619;28;20033;-22
2022/02/21 09:01:09;;;;;;;33.45;16.67;;;;;;;11.43;59.54;99898.47;5047291;28;20033;-22
2022/02/21 09:03:35;;;;;;;45.75;25.45;;;;;;;11.42;59.95;99896.84;5012473;28;20050;-22
2022/02/21 09:06:00;;;;;;;21.33;14.48;;;;;;;11.63;58.71;99879.47;5046809;28;20021;-22
2022/02/21 09:08:27;;;;;;;22.33;14.35;;;;;;;11.59;60.05;99889.81;5046665;28;20036;-22
2022/02/21 09:10:53;;;;;;;27.92;14.80;;;;;;;11.63;59.06;99882.97;5027394;28;20417;-22
2022/02/21 09:13:18;;;;;;;25.33;16.65;;;;;;;11.74;58.45;99883.19;5046622;28;20033;-22
2022/02/21 09:15:45;;;;;;;20.75;13.88;;;;;;;11.74;60.64;99886.69;5012514;28;20059;-22
2022/02/21 09:18:10;;;;;;;22.40;15.52;;;;;;;11.61;59.42;99878.91;5028629;28;20029;-23
2022/02/21 09:20:36;;;;;;;25.33;15.90;;;;;;;12.03;59.61;99862.78;5046150;28;20489;-22
2022/02/21 09:23:02;;;;;;;24.02;13.18;;;;;;;11.95;58.29;99868.47;5028892;28;20067;-22
2022/02/21 09:25:28;;;;;;;19.05;13.23;;;;;;;12.04;58.10;99867.09;5046509;28;20416;-22
2022/02/21 09:27:54;;;;;;;19.00;13.32;;;;;;;12.15;57.76;99852.09;5028371;28;20037;-22
2022/02/21 09:30:19;;;;;;;22.85;14.75;;;;;;;12.50;57.35;99862.72;5046331;28;20036;-22
2022/02/21 09:32:45;;;;;;;25.75;18.67;;;;;;;12.82;56.59;99847.03;5012034;28;20512;-22
2022/02/21 09:35:11;;;;;;;21.40;13.00;;;;;;;12.52;57.96;99851.78;5028141;28;20040;-24
2022/02/21 09:37:40;;;;;;;26.50;15.95;;;;;;;12.96;56.45;99826.16;5028695;28;20033;-21
2022/02/21 09:40:10;;;;;;;21.92;15.57;;;;;;;13.39;54.19;99824.75;5028973;28;20037;-22
2022/02/21 09:42:38;;;;;;;34.88;15.98;;;;;;;13.52;55.26;99828.16;5046020;28;20036;-22
2022/02/21 09:45:05;;;;;;;29.27;18.33;;;;;;;13.58;54.20;99822.63;5046603;28;20032;-22
2022/02/21 09:47:31;;;;;;;28.08;16.83;;;;;;;13.57;54.82;99802.28;5028439;28;20029;-22
2022/02/21 09:49:57;;;;;;;25.10;15.40;;;;;;;13.80;54.38;99808.50;5046132;28;20091;-23
2022/02/21 09:52:22;;;;;;;22.75;13.68;;;;;;;13.80;54.68;99811.19;5028524;28;20044;-22
2022/02/21 09:54:47;;;;;;;25.33;19.02;;;;;;;14.13;53.93;99801.44;5028028;28;20037;-22
2022/02/21 09:57:16;;;;;;;35.75;26.05;;;;;;;14.67;52.76;99796.22;5028019;28;20072;-22
2022/02/21 09:59:42;;;;;;;26.15;15.30;;;;;;;14.92;53.71;99797.53;5050405;28;20035;-22
2022/02/21 10:02:14;;;;;;;22.88;15.52;;;;;;;14.74;52.43;99788.75;5050007;28;20033;-22
2022/02/21 10:04:40;;;;;;;22.52;13.98;;;;;;;14.29;53.24;99784.47;5031906;28;20035;-22
2022/02/21 10:07:05;;;;;;;20.42;15.18;;;;;;;14.53;54.22;99781.53;5032364;28;20037;-22
2022/02/21 10:09:31;;;;;;;26.08;17.13;;;;;;;14.59;51.88;99764.47;5050078;28;20048;-22
2022/02/21 10:11:59;;;;;;;21.25;12.88;;;;;;;14.63;53.00;99768.25;5050115;28;20690;-22
2022/02/21 10:14:28;;;;;;;26.08;19.45;;;;;;;14.94;52.44;99755.13;5049866;28;20057;-22
2022/02/21 10:16:58;;;;;;;20.98;14.95;;;;;;;15.17;51.65;99746.72;5049632;28;20091;-21
2022/02/21 10:19:38;;;;;;;23.25;15.15;;;;;;;15.13;50.91;99750.97;5050037;28;20040;-21
2022/02/21 10:22:13;;;;;;;57.45;35.80;;;;;;;15.44;50.83;99745.81;5032605;28;20450;-22
2022/02/21 10:24:42;;;;;;;27.88;18.35;;;;;;;15.56;50.04;99743.75;5049631;28;20029;-22
2022/02/21 10:27:30;;;;;;;25.45;14.40;;;;;;;15.59;50.23;99737.88;5049665;28;20112;-22
2022/02/21 10:30:05;;;;;;;;;;;;;;;16.15;48.68;99726.59;5050345;28;20406;-22
2022/02/21 10:32:35;;;;;;;22.55;15.52;;;;;;;15.22;49.94;99711.84;5049386;28;20351;-22
2022/02/21 10:35:12;;;;;;;30.77;20.67;;;;;;;15.33;50.00;99704.66;5049555;28;20021;-22
2022/02/21 10:37:44;;;;;;;21.63;14.48;;;;;;;15.63;49.42;99700.50;5015314;28;20739;-22
2022/02/21 10:40:11;;;;;;;36.22;17.90;;;;;;;15.57;49.08;99690.81;5049709;28;20579;-21
2022/02/21 10:42:38;;;;;;;49.42;27.02;;;;;;;16.24;48.12;99683.81;5049309;28;20037;-21
2022/02/21 10:45:14;;;;;;;32.30;18.37;;;;;;;16.72;47.87;99668.28;5049533;28;20059;-23
2022/02/21 10:48:00;;;;;;;25.15;15.65;;;;;;;16.74;46.49;99674.22;5049269;28;20071;-22
2022/02/21 10:50:26;;;;;;;25.42;15.77;;;;;;;16.11;47.35;99657.44;5034290;28;20029;-22
2022/02/21 10:52:52;;;;;;;28.10;15.38;;;;;;;16.41;46.14;99652.13;5048971;28;20028;-23
2022/02/21 10:55:17;;;;;;;35.30;21.58;;;;;;;16.53;46.07;99641.09;5049387;28;20037;-22
2022/02/21 10:57:44;;;;;;;19.40;12.00;;;;;;;16.47;45.89;99640.28;5049061;28;20032;-22
2022/02/21 11:00:10;;;;;;;19.70;13.43;;;;;;;16.80;44.87;99630.06;5031549;28;20060;-22
2022/02/21 11:02:37;;;;;;;17.88;11.05;;;;;;;17.25;43.58;99625.69;5030948;28;20025;-22
2022/02/21 11:05:03;;;;;;;18.90;13.40;;;;;;;16.67;45.37;99617.13;5049262;28;20044;-22
2022/02/21 11:07:29;;;;;;;23.67;16.08;;;;;;;16.64;44.40;99613.09;5014906;28;20104;-22
2022/02/21 11:09:58;;;;;;;23.85;15.77;;;;;;;16.74;45.64;99604.22;5029736;28;20028;-21
2022/02/21 11:12:25;;;;;;;32.55;19.48;;;;;;;17.50;43.26;99599.72;5015144;28;20052;-22